Adamsville, Utah
Current Conditions -  °F | °C
As of 7:52 PM on Monday 26 Jan 2015 (Local Time) from KMLF Reporting Station
Clear Clear  
Wind Chill:   Ceiling: Unl
Heat Index:   Visibility: 10mi
Dew Point: -1°   Wind: 3mph
Humidity: 76%   Direction: 100°E
Pressure: 30.21"   Gusts: NA
Location:  38.2672°N, 112.728°W
Report Text: KMLF 270252Z AUTO 10003KT 10SM CLR 03/M01 A3021 RMK AO2 SLP244 T00331006 53001 TSNO
Loading
Personal Weather Stations






























Interactive Weather Map New forecast layout! Learn more

10-Day Weather Forecast

Advertisements
Track Severe Weather on mobile